sensor_id;sensor_type;location;lat;lon;timestamp;P1;durP1;ratioP1;P2;durP2;ratioP2
16727;SDS011;8482;54.396;18.590;2023-05-07T00:00:37;7.00;;;3.55;;
16727;SDS011;8482;54.396;18.590;2023-05-07T00:03:03;6.72;;;3.90;;
16727;SDS011;8482;54.396;18.590;2023-05-07T00:05:30;6.55;;;2.95;;
16727;SDS011;8482;54.396;18.590;2023-05-07T00:07:56;7.50;;;3.80;;
16727;SDS011;8482;54.396;18.590;2023-05-07T00:10:21;6.70;;;3.43;;
16727;SDS011;8482;54.396;18.590;2023-05-07T00:12:47;6.95;;;3.47;;
16727;SDS011;8482;54.396;18.590;2023-05-07T00:15:13;6.95;;;3.20;;
16727;SDS011;8482;54.396;18.590;2023-05-07T00:17:39;7.60;;;3.42;;
16727;SDS011;8482;54.396;18.590;2023-05-07T00:20:05;7.10;;;3.60;;
16727;SDS011;8482;54.396;18.590;2023-05-07T00:22:32;7.00;;;3.60;;
16727;SDS011;8482;54.396;18.590;2023-05-07T00:24:58;7.70;;;3.60;;
16727;SDS011;8482;54.396;18.590;2023-05-07T00:27:24;7.47;;;3.60;;
16727;SDS011;8482;54.396;18.590;2023-05-07T00:29:50;7.35;;;3.88;;
16727;SDS011;8482;54.396;18.590;2023-05-07T00:32:16;8.63;;;3.90;;
16727;SDS011;8482;54.396;18.590;2023-05-07T00:34:42;6.53;;;3.50;;
16727;SDS011;8482;54.396;18.590;2023-05-07T00:37:09;7.57;;;4.30;;
16727;SDS011;8482;54.396;18.590;2023-05-07T00:39:35;8.27;;;4.00;;
16727;SDS011;8482;54.396;18.590;2023-05-07T00:42:01;6.90;;;3.57;;
16727;SDS011;8482;54.396;18.590;2023-05-07T00:44:27;8.00;;;4.22;;
16727;SDS011;8482;54.396;18.590;2023-05-07T00:46:54;7.90;;;4.20;;
16727;SDS011;8482;54.396;18.590;2023-05-07T00:49:22;10.93;;;3.97;;
16727;SDS011;8482;54.396;18.590;2023-05-07T00:52:05;8.20;;;4.10;;
16727;SDS011;8482;54.396;18.590;2023-05-07T00:54:33;8.03;;;3.80;;
16727;SDS011;8482;54.396;18.590;2023-05-07T00:57:00;8.67;;;3.67;;
16727;SDS011;8482;54.396;18.590;2023-05-07T00:59:29;7.83;;;4.40;;
16727;SDS011;8482;54.396;18.590;2023-05-07T01:01:57;8.67;;;4.50;;
16727;SDS011;8482;54.396;18.590;2023-05-07T01:04:23;7.63;;;3.87;;
16727;SDS011;8482;54.396;18.590;2023-05-07T01:06:49;7.30;;;3.90;;
16727;SDS011;8482;54.396;18.590;2023-05-07T01:09:17;9.27;;;4.30;;
16727;SDS011;8482;54.396;18.590;2023-05-07T01:11:45;8.27;;;4.18;;
16727;SDS011;8482;54.396;18.590;2023-05-07T01:14:14;8.63;;;4.37;;
16727;SDS011;8482;54.396;18.590;2023-05-07T01:16:40;8.75;;;4.32;;
16727;SDS011;8482;54.396;18.590;2023-05-07T01:19:07;9.70;;;4.00;;
16727;SDS011;8482;54.396;18.590;2023-05-07T01:21:36;7.65;;;4.22;;
16727;SDS011;8482;54.396;18.590;2023-05-07T01:24:03;10.30;;;3.95;;
16727;SDS011;8482;54.396;18.590;2023-05-07T01:26:30;8.80;;;4.40;;
16727;SDS011;8482;54.396;18.590;2023-05-07T01:28:56;7.50;;;4.07;;
16727;SDS011;8482;54.396;18.590;2023-05-07T01:31:22;7.67;;;4.30;;
16727;SDS011;8482;54.396;18.590;2023-05-07T01:33:49;9.40;;;4.55;;
16727;SDS011;8482;54.396;18.590;2023-05-07T01:36:18;9.87;;;5.00;;
16727;SDS011;8482;54.396;18.590;2023-05-07T01:38:47;7.00;;;3.90;;
16727;SDS011;8482;54.396;18.590;2023-05-07T01:41:13;8.37;;;4.43;;
16727;SDS011;8482;54.396;18.590;2023-05-07T01:43:40;7.63;;;4.27;;
16727;SDS011;8482;54.396;18.590;2023-05-07T01:46:07;7.30;;;3.83;;
16727;SDS011;8482;54.396;18.590;2023-05-07T01:48:35;9.33;;;4.60;;
16727;SDS011;8482;54.396;18.590;2023-05-07T01:51:02;10.33;;;4.27;;
16727;SDS011;8482;54.396;18.590;2023-05-07T01:53:34;9.40;;;4.90;;
16727;SDS011;8482;54.396;18.590;2023-05-07T01:56:01;9.93;;;4.60;;
16727;SDS011;8482;54.396;18.590;2023-05-07T01:58:27;8.37;;;4.23;;
16727;SDS011;8482;54.396;18.590;2023-05-07T02:00:53;9.30;;;4.70;;
16727;SDS011;8482;54.396;18.590;2023-05-07T02:03:19;10.50;;;4.47;;
16727;SDS011;8482;54.396;18.590;2023-05-07T02:05:45;8.68;;;4.80;;
16727;SDS011;8482;54.396;18.590;2023-05-07T02:08:10;7.90;;;4.20;;
16727;SDS011;8482;54.396;18.590;2023-05-07T02:10:36;8.90;;;4.33;;
16727;SDS011;8482;54.396;18.590;2023-05-07T02:13:02;8.20;;;4.97;;
16727;SDS011;8482;54.396;18.590;2023-05-07T02:15:28;11.60;;;4.50;;
16727;SDS011;8482;54.396;18.590;2023-05-07T02:18:00;8.57;;;4.33;;
16727;SDS011;8482;54.396;18.590;2023-05-07T02:20:32;10.63;;;5.00;;
16727;SDS011;8482;54.396;18.590;2023-05-07T02:22:58;10.93;;;5.10;;
16727;SDS011;8482;54.396;18.590;2023-05-07T02:25:24;8.37;;;4.13;;
16727;SDS011;8482;54.396;18.590;2023-05-07T02:27:49;9.10;;;4.07;;
16727;SDS011;8482;54.396;18.590;2023-05-07T02:30:15;9.13;;;4.80;;
16727;SDS011;8482;54.396;18.590;2023-05-07T02:32:41;8.83;;;5.03;;
16727;SDS011;8482;54.396;18.590;2023-05-07T02:35:07;9.20;;;4.40;;
16727;SDS011;8482;54.396;18.590;2023-05-07T02:37:33;9.57;;;4.33;;
16727;SDS011;8482;54.396;18.590;2023-05-07T02:39:59;8.03;;;4.60;;
16727;SDS011;8482;54.396;18.590;2023-05-07T02:42:25;9.63;;;4.90;;
16727;SDS011;8482;54.396;18.590;2023-05-07T02:44:51;9.33;;;4.80;;
16727;SDS011;8482;54.396;18.590;2023-05-07T02:47:17;8.87;;;4.10;;
16727;SDS011;8482;54.396;18.590;2023-05-07T02:49:43;8.90;;;4.17;;
16727;SDS011;8482;54.396;18.590;2023-05-07T02:52:09;11.07;;;4.97;;
16727;SDS011;8482;54.396;18.590;2023-05-07T02:54:34;9.87;;;4.57;;
16727;SDS011;8482;54.396;18.590;2023-05-07T02:57:00;8.80;;;4.20;;
16727;SDS011;8482;54.396;18.590;2023-05-07T02:59:27;9.20;;;4.33;;
16727;SDS011;8482;54.396;18.590;2023-05-07T03:01:52;7.67;;;4.63;;
16727;SDS011;8482;54.396;18.590;2023-05-07T03:04:18;8.37;;;4.17;;
16727;SDS011;8482;54.396;18.590;2023-05-07T03:06:44;9.83;;;4.20;;
16727;SDS011;8482;54.396;18.590;2023-05-07T03:09:10;7.83;;;4.77;;
16727;SDS011;8482;54.396;18.590;2023-05-07T03:11:36;8.57;;;4.03;;
16727;SDS011;8482;54.396;18.590;2023-05-07T03:14:02;7.93;;;4.27;;
16727;SDS011;8482;54.396;18.590;2023-05-07T03:16:27;10.57;;;4.23;;
16727;SDS011;8482;54.396;18.590;2023-05-07T03:18:53;9.17;;;4.47;;
16727;SDS011;8482;54.396;18.590;2023-05-07T03:21:19;8.17;;;3.97;;
16727;SDS011;8482;54.396;18.590;2023-05-07T03:23:45;9.33;;;4.63;;
16727;SDS011;8482;54.396;18.590;2023-05-07T03:26:10;7.87;;;3.77;;
16727;SDS011;8482;54.396;18.590;2023-05-07T03:28:36;8.70;;;4.10;;
16727;SDS011;8482;54.396;18.590;2023-05-07T03:31:02;8.60;;;4.03;;
16727;SDS011;8482;54.396;18.590;2023-05-07T03:33:28;8.80;;;4.07;;
16727;SDS011;8482;54.396;18.590;2023-05-07T03:35:54;8.43;;;4.10;;
16727;SDS011;8482;54.396;18.590;2023-05-07T03:38:20;8.13;;;4.10;;
16727;SDS011;8482;54.396;18.590;2023-05-07T03:40:45;8.70;;;4.27;;
16727;SDS011;8482;54.396;18.590;2023-05-07T03:43:11;8.43;;;4.13;;
16727;SDS011;8482;54.396;18.590;2023-05-07T03:45:37;7.57;;;4.00;;
16727;SDS011;8482;54.396;18.590;2023-05-07T03:48:03;9.13;;;4.40;;
16727;SDS011;8482;54.396;18.590;2023-05-07T03:50:29;7.83;;;3.60;;
16727;SDS011;8482;54.396;18.590;2023-05-07T03:52:55;6.90;;;3.60;;
16727;SDS011;8482;54.396;18.590;2023-05-07T03:55:21;5.67;;;3.23;;
16727;SDS011;8482;54.396;18.590;2023-05-07T03:57:46;8.10;;;3.80;;
16727;SDS011;8482;54.396;18.590;2023-05-07T04:00:12;10.50;;;4.10;;
16727;SDS011;8482;54.396;18.590;2023-05-07T04:02:39;8.20;;;4.80;;
16727;SDS011;8482;54.396;18.590;2023-05-07T04:05:05;7.97;;;4.60;;
16727;SDS011;8482;54.396;18.590;2023-05-07T04:07:31;8.77;;;4.37;;
16727;SDS011;8482;54.396;18.590;2023-05-07T04:09:56;7.20;;;4.00;;
16727;SDS011;8482;54.396;18.590;2023-05-07T04:12:22;8.10;;;3.97;;
16727;SDS011;8482;54.396;18.590;2023-05-07T04:14:48;8.83;;;4.47;;
16727;SDS011;8482;54.396;18.590;2023-05-07T04:17:14;8.03;;;3.80;;
16727;SDS011;8482;54.396;18.590;2023-05-07T04:19:40;7.23;;;3.40;;
16727;SDS011;8482;54.396;18.590;2023-05-07T04:22:10;8.90;;;4.47;;
16727;SDS011;8482;54.396;18.590;2023-05-07T04:24:37;9.67;;;4.43;;
16727;SDS011;8482;54.396;18.590;2023-05-07T04:27:02;7.30;;;3.30;;
16727;SDS011;8482;54.396;18.590;2023-05-07T04:29:29;7.63;;;3.47;;
16727;SDS011;8482;54.396;18.590;2023-05-07T04:31:55;6.93;;;3.80;;
16727;SDS011;8482;54.396;18.590;2023-05-07T04:34:21;10.83;;;4.13;;
16727;SDS011;8482;54.396;18.590;2023-05-07T04:36:47;8.63;;;3.90;;
16727;SDS011;8482;54.396;18.590;2023-05-07T04:39:13;9.30;;;4.03;;
16727;SDS011;8482;54.396;18.590;2023-05-07T04:41:38;7.60;;;3.90;;
16727;SDS011;8482;54.396;18.590;2023-05-07T04:44:04;9.18;;;4.18;;
16727;SDS011;8482;54.396;18.590;2023-05-07T04:46:30;7.83;;;4.17;;
16727;SDS011;8482;54.396;18.590;2023-05-07T04:48:56;7.10;;;3.80;;
16727;SDS011;8482;54.396;18.590;2023-05-07T04:51:22;8.30;;;3.70;;
16727;SDS011;8482;54.396;18.590;2023-05-07T04:53:48;11.77;;;4.13;;
16727;SDS011;8482;54.396;18.590;2023-05-07T04:56:14;9.43;;;4.50;;
16727;SDS011;8482;54.396;18.590;2023-05-07T04:58:40;10.67;;;4.40;;
16727;SDS011;8482;54.396;18.590;2023-05-07T05:01:05;6.97;;;3.83;;
16727;SDS011;8482;54.396;18.590;2023-05-07T05:03:31;8.55;;;3.58;;
16727;SDS011;8482;54.396;18.590;2023-05-07T05:05:57;7.15;;;3.65;;
16727;SDS011;8482;54.396;18.590;2023-05-07T05:08:24;6.65;;;3.60;;
16727;SDS011;8482;54.396;18.590;2023-05-07T05:10:50;7.65;;;3.40;;
16727;SDS011;8482;54.396;18.590;2023-05-07T05:13:16;7.93;;;3.80;;
16727;SDS011;8482;54.396;18.590;2023-05-07T05:15:42;7.68;;;3.85;;
16727;SDS011;8482;54.396;18.590;2023-05-07T05:18:08;7.32;;;3.65;;
16727;SDS011;8482;54.396;18.590;2023-05-07T05:20:34;7.25;;;3.72;;
16727;SDS011;8482;54.396;18.590;2023-05-07T05:23:00;7.90;;;3.78;;
16727;SDS011;8482;54.396;18.590;2023-05-07T05:25:25;7.97;;;3.47;;
16727;SDS011;8482;54.396;18.590;2023-05-07T05:27:52;7.45;;;3.55;;
16727;SDS011;8482;54.396;18.590;2023-05-07T05:30:18;7.35;;;3.38;;
16727;SDS011;8482;54.396;18.590;2023-05-07T05:32:44;5.82;;;2.92;;
16727;SDS011;8482;54.396;18.590;2023-05-07T05:35:09;6.80;;;3.35;;
16727;SDS011;8482;54.396;18.590;2023-05-07T05:37:35;6.28;;;2.80;;
16727;SDS011;8482;54.396;18.590;2023-05-07T05:40:01;7.20;;;2.85;;
16727;SDS011;8482;54.396;18.590;2023-05-07T05:42:27;7.03;;;3.20;;
16727;SDS011;8482;54.396;18.590;2023-05-07T05:44:53;5.38;;;2.90;;
16727;SDS011;8482;54.396;18.590;2023-05-07T05:47:18;5.32;;;2.67;;
16727;SDS011;8482;54.396;18.590;2023-05-07T05:49:44;5.30;;;2.92;;
16727;SDS011;8482;54.396;18.590;2023-05-07T05:52:11;7.03;;;3.30;;
16727;SDS011;8482;54.396;18.590;2023-05-07T05:54:39;4.97;;;2.67;;
16727;SDS011;8482;54.396;18.590;2023-05-07T05:57:04;5.35;;;2.83;;
16727;SDS011;8482;54.396;18.590;2023-05-07T05:59:31;5.38;;;2.80;;
16727;SDS011;8482;54.396;18.590;2023-05-07T06:01:56;7.07;;;3.20;;
16727;SDS011;8482;54.396;18.590;2023-05-07T06:04:23;5.65;;;2.55;;
16727;SDS011;8482;54.396;18.590;2023-05-07T06:06:48;6.35;;;2.97;;
16727;SDS011;8482;54.396;18.590;2023-05-07T06:09:14;6.13;;;2.90;;
16727;SDS011;8482;54.396;18.590;2023-05-07T06:11:40;5.95;;;2.97;;
16727;SDS011;8482;54.396;18.590;2023-05-07T06:14:06;5.50;;;3.00;;
16727;SDS011;8482;54.396;18.590;2023-05-07T06:16:32;4.82;;;2.42;;
16727;SDS011;8482;54.396;18.590;2023-05-07T06:18:57;5.72;;;2.70;;
16727;SDS011;8482;54.396;18.590;2023-05-07T06:21:23;4.78;;;2.63;;
16727;SDS011;8482;54.396;18.590;2023-05-07T06:23:49;5.80;;;2.85;;
16727;SDS011;8482;54.396;18.590;2023-05-07T06:26:17;6.63;;;3.20;;
16727;SDS011;8482;54.396;18.590;2023-05-07T06:28:42;4.95;;;2.60;;
16727;SDS011;8482;54.396;18.590;2023-05-07T06:31:12;4.47;;;2.40;;
16727;SDS011;8482;54.396;18.590;2023-05-07T06:33:45;6.30;;;2.70;;
16727;SDS011;8482;54.396;18.590;2023-05-07T06:36:11;4.43;;;2.42;;
16727;SDS011;8482;54.396;18.590;2023-05-07T06:38:37;4.68;;;2.60;;
16727;SDS011;8482;54.396;18.590;2023-05-07T06:41:05;4.38;;;2.28;;
16727;SDS011;8482;54.396;18.590;2023-05-07T06:43:32;4.32;;;2.30;;
16727;SDS011;8482;54.396;18.590;2023-05-07T06:45:58;4.38;;;2.33;;
16727;SDS011;8482;54.396;18.590;2023-05-07T06:48:24;4.28;;;2.30;;
16727;SDS011;8482;54.396;18.590;2023-05-07T06:50:50;5.70;;;2.53;;
16727;SDS011;8482;54.396;18.590;2023-05-07T06:53:15;5.25;;;2.30;;
16727;SDS011;8482;54.396;18.590;2023-05-07T06:55:41;5.93;;;2.50;;
16727;SDS011;8482;54.396;18.590;2023-05-07T06:58:07;5.00;;;2.38;;
16727;SDS011;8482;54.396;18.590;2023-05-07T07:00:33;3.80;;;2.20;;
16727;SDS011;8482;54.396;18.590;2023-05-07T07:02:59;4.80;;;2.50;;
16727;SDS011;8482;54.396;18.590;2023-05-07T07:05:25;4.97;;;2.50;;
16727;SDS011;8482;54.396;18.590;2023-05-07T07:07:51;4.15;;;2.45;;
16727;SDS011;8482;54.396;18.590;2023-05-07T07:10:20;5.28;;;2.72;;
16727;SDS011;8482;54.396;18.590;2023-05-07T07:12:47;4.22;;;2.17;;
16727;SDS011;8482;54.396;18.590;2023-05-07T07:15:14;5.93;;;2.55;;
16727;SDS011;8482;54.396;18.590;2023-05-07T07:17:41;6.30;;;2.55;;
16727;SDS011;8482;54.396;18.590;2023-05-07T07:20:07;7.50;;;2.95;;
16727;SDS011;8482;54.396;18.590;2023-05-07T07:22:33;5.55;;;2.35;;
16727;SDS011;8482;54.396;18.590;2023-05-07T07:24:59;5.13;;;2.38;;
16727;SDS011;8482;54.396;18.590;2023-05-07T07:27:25;5.53;;;2.60;;
16727;SDS011;8482;54.396;18.590;2023-05-07T07:29:51;5.35;;;2.55;;
16727;SDS011;8482;54.396;18.590;2023-05-07T07:32:16;4.88;;;2.45;;
16727;SDS011;8482;54.396;18.590;2023-05-07T07:34:42;4.22;;;2.45;;
16727;SDS011;8482;54.396;18.590;2023-05-07T07:37:08;4.72;;;2.30;;
16727;SDS011;8482;54.396;18.590;2023-05-07T07:39:34;4.32;;;2.53;;
16727;SDS011;8482;54.396;18.590;2023-05-07T07:42:02;4.88;;;2.53;;
16727;SDS011;8482;54.396;18.590;2023-05-07T07:44:28;4.28;;;2.40;;
16727;SDS011;8482;54.396;18.590;2023-05-07T07:46:54;4.93;;;2.30;;
16727;SDS011;8482;54.396;18.590;2023-05-07T07:49:20;4.15;;;2.60;;
16727;SDS011;8482;54.396;18.590;2023-05-07T07:51:46;3.83;;;2.17;;
16727;SDS011;8482;54.396;18.590;2023-05-07T07:54:12;5.50;;;2.38;;
16727;SDS011;8482;54.396;18.590;2023-05-07T07:56:38;4.82;;;2.65;;
16727;SDS011;8482;54.396;18.590;2023-05-07T07:59:03;4.88;;;2.40;;
16727;SDS011;8482;54.396;18.590;2023-05-07T08:01:30;4.70;;;2.20;;
16727;SDS011;8482;54.396;18.590;2023-05-07T08:03:56;4.88;;;2.70;;
16727;SDS011;8482;54.396;18.590;2023-05-07T08:06:24;3.35;;;1.90;;
16727;SDS011;8482;54.396;18.590;2023-05-07T08:08:51;4.00;;;2.35;;
16727;SDS011;8482;54.396;18.590;2023-05-07T08:11:17;4.55;;;2.00;;
16727;SDS011;8482;54.396;18.590;2023-05-07T08:13:43;4.03;;;2.20;;
16727;SDS011;8482;54.396;18.590;2023-05-07T08:16:10;4.40;;;2.47;;
16727;SDS011;8482;54.396;18.590;2023-05-07T08:18:36;6.10;;;2.20;;
16727;SDS011;8482;54.396;18.590;2023-05-07T08:21:01;3.92;;;2.05;;
16727;SDS011;8482;54.396;18.590;2023-05-07T08:23:28;3.72;;;2.03;;
16727;SDS011;8482;54.396;18.590;2023-05-07T08:25:53;4.85;;;2.22;;
16727;SDS011;8482;54.396;18.590;2023-05-07T08:28:19;4.80;;;2.30;;
16727;SDS011;8482;54.396;18.590;2023-05-07T08:30:46;4.80;;;2.47;;
16727;SDS011;8482;54.396;18.590;2023-05-07T08:33:12;6.05;;;2.63;;
16727;SDS011;8482;54.396;18.590;2023-05-07T08:35:38;7.32;;;3.25;;
16727;SDS011;8482;54.396;18.590;2023-05-07T08:38:04;5.32;;;3.10;;
16727;SDS011;8482;54.396;18.590;2023-05-07T08:40:31;4.13;;;2.08;;
16727;SDS011;8482;54.396;18.590;2023-05-07T08:43:05;5.18;;;2.65;;
16727;SDS011;8482;54.396;18.590;2023-05-07T08:45:32;4.30;;;2.38;;
16727;SDS011;8482;54.396;18.590;2023-05-07T08:48:00;4.88;;;2.28;;
16727;SDS011;8482;54.396;18.590;2023-05-07T08:50:30;4.60;;;2.33;;
16727;SDS011;8482;54.396;18.590;2023-05-07T08:52:56;4.85;;;2.10;;
16727;SDS011;8482;54.396;18.590;2023-05-07T08:55:22;5.45;;;2.50;;
16727;SDS011;8482;54.396;18.590;2023-05-07T08:57:50;4.18;;;2.35;;
16727;SDS011;8482;54.396;18.590;2023-05-07T09:00:17;3.65;;;2.10;;
16727;SDS011;8482;54.396;18.590;2023-05-07T09:02:43;5.00;;;2.17;;
16727;SDS011;8482;54.396;18.590;2023-05-07T09:05:09;4.25;;;2.10;;
16727;SDS011;8482;54.396;18.590;2023-05-07T09:07:35;2.75;;;1.83;;
16727;SDS011;8482;54.396;18.590;2023-05-07T09:10:02;4.32;;;2.17;;
16727;SDS011;8482;54.396;18.590;2023-05-07T09:12:29;5.85;;;2.83;;
16727;SDS011;8482;54.396;18.590;2023-05-07T09:14:55;3.83;;;1.90;;
16727;SDS011;8482;54.396;18.590;2023-05-07T09:17:21;3.58;;;1.60;;
16727;SDS011;8482;54.396;18.590;2023-05-07T09:19:47;4.70;;;1.95;;
16727;SDS011;8482;54.396;18.590;2023-05-07T09:22:13;3.33;;;1.70;;
16727;SDS011;8482;54.396;18.590;2023-05-07T09:24:40;5.00;;;3.00;;
16727;SDS011;8482;54.396;18.590;2023-05-07T09:27:06;4.13;;;2.22;;
16727;SDS011;8482;54.396;18.590;2023-05-07T09:29:34;5.30;;;2.30;;
16727;SDS011;8482;54.396;18.590;2023-05-07T09:32:04;4.15;;;2.03;;
16727;SDS011;8482;54.396;18.590;2023-05-07T09:34:32;4.25;;;2.05;;
16727;SDS011;8482;54.396;18.590;2023-05-07T09:37:00;2.83;;;1.80;;
16727;SDS011;8482;54.396;18.590;2023-05-07T09:39:43;3.10;;;1.92;;
16727;SDS011;8482;54.396;18.590;2023-05-07T09:42:11;3.80;;;2.05;;
16727;SDS011;8482;54.396;18.590;2023-05-07T09:44:40;4.13;;;2.38;;
16727;SDS011;8482;54.396;18.590;2023-05-07T09:47:06;4.10;;;2.08;;
16727;SDS011;8482;54.396;18.590;2023-05-07T09:49:37;5.20;;;2.20;;
16727;SDS011;8482;54.396;18.590;2023-05-07T09:52:05;3.53;;;1.80;;
16727;SDS011;8482;54.396;18.590;2023-05-07T09:54:34;5.28;;;1.90;;
16727;SDS011;8482;54.396;18.590;2023-05-07T09:57:03;2.45;;;1.77;;
16727;SDS011;8482;54.396;18.590;2023-05-07T09:59:32;3.83;;;1.83;;
16727;SDS011;8482;54.396;18.590;2023-05-07T10:02:00;2.63;;;1.60;;
16727;SDS011;8482;54.396;18.590;2023-05-07T10:04:28;4.25;;;1.60;;
16727;SDS011;8482;54.396;18.590;2023-05-07T10:06:55;3.08;;;1.63;;
16727;SDS011;8482;54.396;18.590;2023-05-07T10:09:23;3.08;;;1.45;;
16727;SDS011;8482;54.396;18.590;2023-05-07T10:11:51;3.17;;;2.00;;
16727;SDS011;8482;54.396;18.590;2023-05-07T10:14:21;2.80;;;1.70;;
16727;SDS011;8482;54.396;18.590;2023-05-07T10:16:48;3.03;;;1.52;;
16727;SDS011;8482;54.396;18.590;2023-05-07T10:19:14;2.97;;;1.55;;
16727;SDS011;8482;54.396;18.590;2023-05-07T10:21:48;3.10;;;1.63;;
16727;SDS011;8482;54.396;18.590;2023-05-07T10:24:31;2.70;;;1.50;;
16727;SDS011;8482;54.396;18.590;2023-05-07T10:27:04;2.17;;;1.50;;
16727;SDS011;8482;54.396;18.590;2023-05-07T10:32:42;3.03;;;1.90;;
16727;SDS011;8482;54.396;18.590;2023-05-07T10:35:16;2.75;;;1.73;;
16727;SDS011;8482;54.396;18.590;2023-05-07T10:37:46;2.78;;;1.52;;
16727;SDS011;8482;54.396;18.590;2023-05-07T10:40:13;3.35;;;2.00;;
16727;SDS011;8482;54.396;18.590;2023-05-07T10:42:52;3.22;;;1.80;;
16727;SDS011;8482;54.396;18.590;2023-05-07T10:45:30;3.22;;;2.10;;
16727;SDS011;8482;54.396;18.590;2023-05-07T10:48:09;4.65;;;2.30;;
16727;SDS011;8482;54.396;18.590;2023-05-07T10:50:38;6.75;;;3.13;;
16727;SDS011;8482;54.396;18.590;2023-05-07T10:55:48;5.10;;;2.80;;
16727;SDS011;8482;54.396;18.590;2023-05-07T10:58:35;5.75;;;2.85;;
16727;SDS011;8482;54.396;18.590;2023-05-07T11:01:02;5.05;;;2.40;;
16727;SDS011;8482;54.396;18.590;2023-05-07T11:03:29;5.03;;;2.70;;
16727;SDS011;8482;54.396;18.590;2023-05-07T11:06:14;4.55;;;2.63;;
16727;SDS011;8482;54.396;18.590;2023-05-07T11:08:56;5.43;;;2.50;;
16727;SDS011;8482;54.396;18.590;2023-05-07T11:17:06;5.15;;;2.63;;
16727;SDS011;8482;54.396;18.590;2023-05-07T11:19:52;5.18;;;2.20;;
16727;SDS011;8482;54.396;18.590;2023-05-07T11:25:04;5.15;;;2.67;;
16727;SDS011;8482;54.396;18.590;2023-05-07T11:27:32;4.95;;;2.70;;
16727;SDS011;8482;54.396;18.590;2023-05-07T11:29:58;4.75;;;2.65;;
16727;SDS011;8482;54.396;18.590;2023-05-07T11:32:29;5.50;;;2.80;;
16727;SDS011;8482;54.396;18.590;2023-05-07T11:34:58;4.78;;;2.35;;
16727;SDS011;8482;54.396;18.590;2023-05-07T11:37:27;4.50;;;2.13;;
16727;SDS011;8482;54.396;18.590;2023-05-07T11:40:04;3.30;;;2.05;;
16727;SDS011;8482;54.396;18.590;2023-05-07T11:42:33;5.30;;;2.45;;
16727;SDS011;8482;54.396;18.590;2023-05-07T11:45:02;4.28;;;2.30;;
16727;SDS011;8482;54.396;18.590;2023-05-07T11:47:30;4.90;;;2.45;;
16727;SDS011;8482;54.396;18.590;2023-05-07T11:49:57;5.07;;;2.30;;
16727;SDS011;8482;54.396;18.590;2023-05-07T11:52:33;4.07;;;1.90;;
16727;SDS011;8482;54.396;18.590;2023-05-07T11:55:00;4.70;;;2.30;;
16727;SDS011;8482;54.396;18.590;2023-05-07T11:57:28;5.13;;;2.53;;
16727;SDS011;8482;54.396;18.590;2023-05-07T11:59:55;3.90;;;2.00;;
16727;SDS011;8482;54.396;18.590;2023-05-07T12:02:27;2.83;;;1.40;;
16727;SDS011;8482;54.396;18.590;2023-05-07T12:04:53;3.65;;;1.70;;
16727;SDS011;8482;54.396;18.590;2023-05-07T12:07:20;2.15;;;1.60;;
16727;SDS011;8482;54.396;18.590;2023-05-07T12:09:46;2.95;;;1.48;;
16727;SDS011;8482;54.396;18.590;2023-05-07T12:12:13;2.50;;;1.67;;
16727;SDS011;8482;54.396;18.590;2023-05-07T12:14:44;3.03;;;1.70;;
16727;SDS011;8482;54.396;18.590;2023-05-07T12:17:11;2.63;;;1.48;;
16727;SDS011;8482;54.396;18.590;2023-05-07T12:19:40;3.85;;;1.85;;
16727;SDS011;8482;54.396;18.590;2023-05-07T12:22:09;3.50;;;1.70;;
16727;SDS011;8482;54.396;18.590;2023-05-07T12:27:36;3.38;;;1.90;;
16727;SDS011;8482;54.396;18.590;2023-05-07T12:30:04;4.50;;;2.25;;
16727;SDS011;8482;54.396;18.590;2023-05-07T12:32:30;5.20;;;2.22;;
16727;SDS011;8482;54.396;18.590;2023-05-07T12:35:01;3.75;;;2.10;;
16727;SDS011;8482;54.396;18.590;2023-05-07T12:37:27;3.83;;;1.70;;
16727;SDS011;8482;54.396;18.590;2023-05-07T12:40:06;3.78;;;1.90;;
16727;SDS011;8482;54.396;18.590;2023-05-07T12:42:36;4.55;;;1.95;;
16727;SDS011;8482;54.396;18.590;2023-05-07T12:45:11;2.70;;;1.70;;
16727;SDS011;8482;54.396;18.590;2023-05-07T12:47:46;5.18;;;2.58;;
16727;SDS011;8482;54.396;18.590;2023-05-07T12:50:15;3.95;;;2.30;;
16727;SDS011;8482;54.396;18.590;2023-05-07T12:52:42;4.95;;;2.53;;
16727;SDS011;8482;54.396;18.590;2023-05-07T12:55:12;6.28;;;2.63;;
16727;SDS011;8482;54.396;18.590;2023-05-07T12:57:41;4.25;;;2.25;;
16727;SDS011;8482;54.396;18.590;2023-05-07T13:00:13;4.97;;;2.10;;
16727;SDS011;8482;54.396;18.590;2023-05-07T13:02:41;4.35;;;2.10;;
16727;SDS011;8482;54.396;18.590;2023-05-07T13:05:11;4.60;;;1.95;;
16727;SDS011;8482;54.396;18.590;2023-05-07T13:07:37;4.78;;;2.40;;
16727;SDS011;8482;54.396;18.590;2023-05-07T13:10:05;4.60;;;2.33;;
16727;SDS011;8482;54.396;18.590;2023-05-07T13:12:32;5.15;;;2.60;;
16727;SDS011;8482;54.396;18.590;2023-05-07T13:14:58;4.60;;;2.03;;
16727;SDS011;8482;54.396;18.590;2023-05-07T13:17:24;3.92;;;1.60;;
16727;SDS011;8482;54.396;18.590;2023-05-07T13:19:49;5.40;;;2.47;;
16727;SDS011;8482;54.396;18.590;2023-05-07T13:22:15;6.68;;;2.40;;
16727;SDS011;8482;54.396;18.590;2023-05-07T13:24:41;3.70;;;2.03;;
16727;SDS011;8482;54.396;18.590;2023-05-07T13:27:08;4.55;;;2.47;;
16727;SDS011;8482;54.396;18.590;2023-05-07T13:29:34;4.07;;;2.40;;
16727;SDS011;8482;54.396;18.590;2023-05-07T13:32:00;4.68;;;2.58;;
16727;SDS011;8482;54.396;18.590;2023-05-07T13:34:26;4.32;;;2.20;;
16727;SDS011;8482;54.396;18.590;2023-05-07T13:36:53;3.03;;;2.10;;
16727;SDS011;8482;54.396;18.590;2023-05-07T13:39:18;4.15;;;2.13;;
16727;SDS011;8482;54.396;18.590;2023-05-07T13:41:45;3.25;;;2.00;;
16727;SDS011;8482;54.396;18.590;2023-05-07T13:44:10;4.22;;;1.80;;
16727;SDS011;8482;54.396;18.590;2023-05-07T13:46:36;3.92;;;1.77;;
16727;SDS011;8482;54.396;18.590;2023-05-07T13:49:02;5.38;;;2.20;;
16727;SDS011;8482;54.396;18.590;2023-05-07T13:51:28;3.67;;;2.00;;
16727;SDS011;8482;54.396;18.590;2023-05-07T13:53:54;2.72;;;1.83;;
16727;SDS011;8482;54.396;18.590;2023-05-07T13:56:19;3.72;;;1.95;;
16727;SDS011;8482;54.396;18.590;2023-05-07T13:58:46;4.25;;;1.77;;
16727;SDS011;8482;54.396;18.590;2023-05-07T14:01:12;4.13;;;2.00;;
16727;SDS011;8482;54.396;18.590;2023-05-07T14:03:37;4.47;;;2.30;;
16727;SDS011;8482;54.396;18.590;2023-05-07T14:06:04;3.58;;;2.15;;
16727;SDS011;8482;54.396;18.590;2023-05-07T14:08:30;3.90;;;2.03;;
16727;SDS011;8482;54.396;18.590;2023-05-07T14:10:56;4.93;;;2.33;;
16727;SDS011;8482;54.396;18.590;2023-05-07T14:13:22;4.13;;;2.10;;
16727;SDS011;8482;54.396;18.590;2023-05-07T14:15:48;6.10;;;2.38;;
16727;SDS011;8482;54.396;18.590;2023-05-07T14:18:14;5.25;;;2.47;;
16727;SDS011;8482;54.396;18.590;2023-05-07T14:20:43;3.42;;;2.10;;
16727;SDS011;8482;54.396;18.590;2023-05-07T14:23:11;5.13;;;2.45;;
16727;SDS011;8482;54.396;18.590;2023-05-07T14:25:37;3.70;;;2.13;;
16727;SDS011;8482;54.396;18.590;2023-05-07T14:28:03;5.05;;;2.15;;
16727;SDS011;8482;54.396;18.590;2023-05-07T14:30:28;4.90;;;2.42;;
16727;SDS011;8482;54.396;18.590;2023-05-07T14:32:54;3.75;;;1.80;;
16727;SDS011;8482;54.396;18.590;2023-05-07T14:35:20;3.47;;;1.83;;
16727;SDS011;8482;54.396;18.590;2023-05-07T14:37:46;2.83;;;1.73;;
16727;SDS011;8482;54.396;18.590;2023-05-07T14:40:12;4.28;;;2.08;;
16727;SDS011;8482;54.396;18.590;2023-05-07T14:42:39;4.25;;;1.80;;
16727;SDS011;8482;54.396;18.590;2023-05-07T14:45:05;3.42;;;1.80;;
16727;SDS011;8482;54.396;18.590;2023-05-07T14:47:32;5.13;;;1.90;;
16727;SDS011;8482;54.396;18.590;2023-05-07T14:49:58;3.85;;;1.90;;
16727;SDS011;8482;54.396;18.590;2023-05-07T14:52:25;3.97;;;2.22;;
16727;SDS011;8482;54.396;18.590;2023-05-07T14:54:51;2.85;;;1.63;;
16727;SDS011;8482;54.396;18.590;2023-05-07T14:57:17;4.80;;;2.08;;
16727;SDS011;8482;54.396;18.590;2023-05-07T14:59:44;4.18;;;2.10;;
16727;SDS011;8482;54.396;18.590;2023-05-07T15:02:12;4.82;;;2.50;;
16727;SDS011;8482;54.396;18.590;2023-05-07T15:04:38;3.65;;;1.95;;